sensor_id;sensor_type;location;lat;lon;timestamp;P1;durP1;ratioP1;P2;durP2;ratioP2
54923;SDS011;40825;52.270;20.984;2023-04-25T00:01:04;16.60;;;10.70;;
54923;SDS011;40825;52.270;20.984;2023-04-25T00:03:30;15.60;;;10.10;;
54923;SDS011;40825;52.270;20.984;2023-04-25T00:05:57;16.80;;;10.50;;
54923;SDS011;40825;52.270;20.984;2023-04-25T00:08:27;16.70;;;9.70;;
54923;SDS011;40825;52.270;20.984;2023-04-25T00:10:52;15.60;;;10.30;;
54923;SDS011;40825;52.270;20.984;2023-04-25T00:13:18;15.90;;;10.40;;
54923;SDS011;40825;52.270;20.984;2023-04-25T00:15:44;16.20;;;10.50;;
54923;SDS011;40825;52.270;20.984;2023-04-25T00:18:13;16.80;;;11.00;;
54923;SDS011;40825;52.270;20.984;2023-04-25T00:20:39;14.90;;;9.90;;
54923;SDS011;40825;52.270;20.984;2023-04-25T00:23:05;14.50;;;10.00;;
54923;SDS011;40825;52.270;20.984;2023-04-25T00:25:30;17.30;;;10.60;;
54923;SDS011;40825;52.270;20.984;2023-04-25T00:27:56;14.80;;;10.70;;
54923;SDS011;40825;52.270;20.984;2023-04-25T00:30:22;15.90;;;10.40;;
54923;SDS011;40825;52.270;20.984;2023-04-25T00:32:47;16.90;;;10.70;;
54923;SDS011;40825;52.270;20.984;2023-04-25T00:35:14;17.80;;;11.30;;
54923;SDS011;40825;52.270;20.984;2023-04-25T00:37:39;16.70;;;10.50;;
54923;SDS011;40825;52.270;20.984;2023-04-25T00:40:05;18.00;;;11.50;;
54923;SDS011;40825;52.270;20.984;2023-04-25T00:42:31;17.00;;;10.90;;
54923;SDS011;40825;52.270;20.984;2023-04-25T00:44:58;16.20;;;10.40;;
54923;SDS011;40825;52.270;20.984;2023-04-25T00:47:25;19.00;;;11.40;;
54923;SDS011;40825;52.270;20.984;2023-04-25T00:49:50;19.10;;;12.10;;
54923;SDS011;40825;52.270;20.984;2023-04-25T00:52:16;18.60;;;11.80;;
54923;SDS011;40825;52.270;20.984;2023-04-25T00:54:42;19.40;;;12.50;;
54923;SDS011;40825;52.270;20.984;2023-04-25T00:57:08;20.90;;;12.60;;
54923;SDS011;40825;52.270;20.984;2023-04-25T00:59:33;19.00;;;13.40;;
54923;SDS011;40825;52.270;20.984;2023-04-25T01:02:01;18.80;;;12.10;;
54923;SDS011;40825;52.270;20.984;2023-04-25T01:04:27;19.30;;;12.70;;
54923;SDS011;40825;52.270;20.984;2023-04-25T01:06:52;20.70;;;13.20;;
54923;SDS011;40825;52.270;20.984;2023-04-25T01:09:18;18.70;;;12.80;;
54923;SDS011;40825;52.270;20.984;2023-04-25T01:11:45;19.50;;;12.60;;
54923;SDS011;40825;52.270;20.984;2023-04-25T01:14:10;21.30;;;14.10;;
54923;SDS011;40825;52.270;20.984;2023-04-25T01:16:36;19.10;;;13.40;;
54923;SDS011;40825;52.270;20.984;2023-04-25T01:19:04;19.00;;;12.60;;
54923;SDS011;40825;52.270;20.984;2023-04-25T01:21:35;17.80;;;12.00;;
54923;SDS011;40825;52.270;20.984;2023-04-25T01:24:00;19.60;;;12.20;;
54923;SDS011;40825;52.270;20.984;2023-04-25T01:26:27;22.20;;;15.00;;
54923;SDS011;40825;52.270;20.984;2023-04-25T01:28:52;18.80;;;13.10;;
54923;SDS011;40825;52.270;20.984;2023-04-25T01:31:18;19.00;;;12.60;;
54923;SDS011;40825;52.270;20.984;2023-04-25T01:33:44;18.90;;;12.60;;
54923;SDS011;40825;52.270;20.984;2023-04-25T01:36:11;18.90;;;12.00;;
54923;SDS011;40825;52.270;20.984;2023-04-25T01:38:38;19.60;;;12.40;;
54923;SDS011;40825;52.270;20.984;2023-04-25T01:41:05;19.50;;;12.60;;
54923;SDS011;40825;52.270;20.984;2023-04-25T01:43:30;19.70;;;13.20;;
54923;SDS011;40825;52.270;20.984;2023-04-25T01:45:56;19.10;;;11.70;;
54923;SDS011;40825;52.270;20.984;2023-04-25T01:48:22;16.90;;;10.90;;
54923;SDS011;40825;52.270;20.984;2023-04-25T01:50:48;17.40;;;11.30;;
54923;SDS011;40825;52.270;20.984;2023-04-25T01:53:13;18.70;;;11.50;;
54923;SDS011;40825;52.270;20.984;2023-04-25T01:55:39;17.70;;;11.20;;
54923;SDS011;40825;52.270;20.984;2023-04-25T01:58:05;18.60;;;11.30;;
54923;SDS011;40825;52.270;20.984;2023-04-25T02:00:38;17.90;;;11.20;;
54923;SDS011;40825;52.270;20.984;2023-04-25T02:03:05;17.00;;;10.50;;
54923;SDS011;40825;52.270;20.984;2023-04-25T02:05:38;16.50;;;10.90;;
54923;SDS011;40825;52.270;20.984;2023-04-25T02:08:05;17.40;;;11.10;;
54923;SDS011;40825;52.270;20.984;2023-04-25T02:10:32;18.80;;;10.00;;
54923;SDS011;40825;52.270;20.984;2023-04-25T02:12:58;16.80;;;9.60;;
54923;SDS011;40825;52.270;20.984;2023-04-25T02:15:24;16.40;;;10.90;;
54923;SDS011;40825;52.270;20.984;2023-04-25T02:17:49;17.50;;;10.80;;
54923;SDS011;40825;52.270;20.984;2023-04-25T02:20:18;16.30;;;10.40;;
54923;SDS011;40825;52.270;20.984;2023-04-25T02:22:46;16.70;;;11.10;;
54923;SDS011;40825;52.270;20.984;2023-04-25T02:25:12;17.10;;;10.70;;
54923;SDS011;40825;52.270;20.984;2023-04-25T02:27:38;17.00;;;11.00;;
54923;SDS011;40825;52.270;20.984;2023-04-25T02:30:04;17.20;;;10.00;;
54923;SDS011;40825;52.270;20.984;2023-04-25T02:32:32;14.60;;;10.10;;
54923;SDS011;40825;52.270;20.984;2023-04-25T02:34:59;15.70;;;9.70;;
54923;SDS011;40825;52.270;20.984;2023-04-25T02:37:29;19.00;;;10.50;;
54923;SDS011;40825;52.270;20.984;2023-04-25T02:39:58;16.20;;;9.70;;
54923;SDS011;40825;52.270;20.984;2023-04-25T02:42:24;16.40;;;9.50;;
54923;SDS011;40825;52.270;20.984;2023-04-25T02:44:50;16.50;;;10.10;;
54923;SDS011;40825;52.270;20.984;2023-04-25T02:47:15;15.80;;;9.60;;
54923;SDS011;40825;52.270;20.984;2023-04-25T02:49:41;15.00;;;9.80;;
54923;SDS011;40825;52.270;20.984;2023-04-25T02:52:06;14.90;;;9.00;;
54923;SDS011;40825;52.270;20.984;2023-04-25T02:54:32;14.40;;;9.00;;
54923;SDS011;40825;52.270;20.984;2023-04-25T02:56:57;14.70;;;8.90;;
54923;SDS011;40825;52.270;20.984;2023-04-25T02:59:23;14.10;;;8.20;;
54923;SDS011;40825;52.270;20.984;2023-04-25T03:01:48;15.30;;;9.10;;
54923;SDS011;40825;52.270;20.984;2023-04-25T03:04:14;16.30;;;9.40;;
54923;SDS011;40825;52.270;20.984;2023-04-25T03:06:40;14.70;;;8.50;;
54923;SDS011;40825;52.270;20.984;2023-04-25T03:09:05;13.90;;;8.70;;
54923;SDS011;40825;52.270;20.984;2023-04-25T03:11:31;14.70;;;8.40;;
54923;SDS011;40825;52.270;20.984;2023-04-25T03:13:57;15.60;;;8.50;;
54923;SDS011;40825;52.270;20.984;2023-04-25T03:16:22;14.10;;;7.70;;
54923;SDS011;40825;52.270;20.984;2023-04-25T03:18:48;15.00;;;8.60;;
54923;SDS011;40825;52.270;20.984;2023-04-25T03:21:15;13.40;;;8.30;;
54923;SDS011;40825;52.270;20.984;2023-04-25T03:23:41;15.80;;;8.60;;
54923;SDS011;40825;52.270;20.984;2023-04-25T03:26:07;17.60;;;8.90;;
54923;SDS011;40825;52.270;20.984;2023-04-25T03:28:32;12.80;;;7.90;;
54923;SDS011;40825;52.270;20.984;2023-04-25T03:30:57;14.00;;;8.20;;
54923;SDS011;40825;52.270;20.984;2023-04-25T03:33:23;14.20;;;8.00;;
54923;SDS011;40825;52.270;20.984;2023-04-25T03:35:48;14.70;;;7.90;;
54923;SDS011;40825;52.270;20.984;2023-04-25T03:38:15;13.20;;;7.80;;
54923;SDS011;40825;52.270;20.984;2023-04-25T03:40:41;14.60;;;7.30;;
54923;SDS011;40825;52.270;20.984;2023-04-25T03:43:06;13.40;;;7.60;;
54923;SDS011;40825;52.270;20.984;2023-04-25T03:45:32;12.70;;;7.60;;
54923;SDS011;40825;52.270;20.984;2023-04-25T03:47:57;14.60;;;9.20;;
54923;SDS011;40825;52.270;20.984;2023-04-25T03:50:23;15.50;;;7.50;;
54923;SDS011;40825;52.270;20.984;2023-04-25T03:52:49;13.00;;;7.00;;
54923;SDS011;40825;52.270;20.984;2023-04-25T03:55:15;12.60;;;7.10;;
54923;SDS011;40825;52.270;20.984;2023-04-25T03:57:41;13.60;;;7.80;;
54923;SDS011;40825;52.270;20.984;2023-04-25T04:00:06;12.60;;;7.50;;
54923;SDS011;40825;52.270;20.984;2023-04-25T04:02:33;10.60;;;6.40;;
54923;SDS011;40825;52.270;20.984;2023-04-25T04:05:00;11.80;;;7.20;;
54923;SDS011;40825;52.270;20.984;2023-04-25T04:07:26;15.00;;;8.40;;
54923;SDS011;40825;52.270;20.984;2023-04-25T04:09:51;12.80;;;7.30;;
54923;SDS011;40825;52.270;20.984;2023-04-25T04:12:17;11.30;;;6.50;;
54923;SDS011;40825;52.270;20.984;2023-04-25T04:14:42;12.60;;;7.70;;
54923;SDS011;40825;52.270;20.984;2023-04-25T04:17:08;14.10;;;6.80;;
54923;SDS011;40825;52.270;20.984;2023-04-25T04:19:33;13.10;;;7.10;;
54923;SDS011;40825;52.270;20.984;2023-04-25T04:21:59;13.10;;;7.10;;
54923;SDS011;40825;52.270;20.984;2023-04-25T04:24:24;12.40;;;6.60;;
54923;SDS011;40825;52.270;20.984;2023-04-25T04:26:50;11.40;;;6.40;;
54923;SDS011;40825;52.270;20.984;2023-04-25T04:29:17;11.70;;;7.00;;
54923;SDS011;40825;52.270;20.984;2023-04-25T04:31:49;12.60;;;6.90;;
54923;SDS011;40825;52.270;20.984;2023-04-25T04:34:16;11.70;;;6.50;;
54923;SDS011;40825;52.270;20.984;2023-04-25T04:36:43;12.40;;;7.40;;
54923;SDS011;40825;52.270;20.984;2023-04-25T04:39:11;10.50;;;6.80;;
54923;SDS011;40825;52.270;20.984;2023-04-25T04:41:38;12.40;;;7.10;;
54923;SDS011;40825;52.270;20.984;2023-04-25T04:44:04;11.50;;;7.00;;
54923;SDS011;40825;52.270;20.984;2023-04-25T04:46:32;12.70;;;7.10;;
54923;SDS011;40825;52.270;20.984;2023-04-25T04:49:05;11.00;;;6.90;;
54923;SDS011;40825;52.270;20.984;2023-04-25T04:53:58;13.70;;;7.20;;
54923;SDS011;40825;52.270;20.984;2023-04-25T04:56:27;10.70;;;6.70;;
54923;SDS011;40825;52.270;20.984;2023-04-25T04:58:58;9.40;;;5.70;;
54923;SDS011;40825;52.270;20.984;2023-04-25T05:01:25;12.60;;;7.00;;
54923;SDS011;40825;52.270;20.984;2023-04-25T05:03:51;12.00;;;7.70;;
54923;SDS011;40825;52.270;20.984;2023-04-25T05:06:20;11.40;;;6.90;;
54923;SDS011;40825;52.270;20.984;2023-04-25T05:08:45;11.40;;;6.50;;
54923;SDS011;40825;52.270;20.984;2023-04-25T05:11:11;10.80;;;6.60;;
54923;SDS011;40825;52.270;20.984;2023-04-25T05:13:37;13.00;;;8.10;;
54923;SDS011;40825;52.270;20.984;2023-04-25T05:16:02;12.80;;;7.70;;
54923;SDS011;40825;52.270;20.984;2023-04-25T05:18:28;12.60;;;7.70;;
54923;SDS011;40825;52.270;20.984;2023-04-25T05:20:54;11.80;;;6.90;;
54923;SDS011;40825;52.270;20.984;2023-04-25T05:23:19;10.50;;;7.00;;
54923;SDS011;40825;52.270;20.984;2023-04-25T05:25:45;11.00;;;6.80;;
54923;SDS011;40825;52.270;20.984;2023-04-25T05:28:11;14.70;;;7.20;;
54923;SDS011;40825;52.270;20.984;2023-04-25T05:30:38;11.70;;;7.90;;
54923;SDS011;40825;52.270;20.984;2023-04-25T05:33:03;11.40;;;7.50;;
54923;SDS011;40825;52.270;20.984;2023-04-25T05:35:29;12.20;;;7.90;;
54923;SDS011;40825;52.270;20.984;2023-04-25T05:37:55;12.00;;;7.70;;
54923;SDS011;40825;52.270;20.984;2023-04-25T05:40:20;11.70;;;7.20;;
54923;SDS011;40825;52.270;20.984;2023-04-25T05:42:46;11.50;;;8.00;;
54923;SDS011;40825;52.270;20.984;2023-04-25T05:45:11;12.90;;;8.30;;
54923;SDS011;40825;52.270;20.984;2023-04-25T05:47:38;10.30;;;6.60;;
54923;SDS011;40825;52.270;20.984;2023-04-25T05:50:03;11.60;;;8.00;;
54923;SDS011;40825;52.270;20.984;2023-04-25T05:52:29;11.50;;;7.80;;
54923;SDS011;40825;52.270;20.984;2023-04-25T05:54:54;11.10;;;7.00;;
54923;SDS011;40825;52.270;20.984;2023-04-25T05:57:21;11.50;;;7.40;;
54923;SDS011;40825;52.270;20.984;2023-04-25T05:59:47;9.90;;;5.90;;
54923;SDS011;40825;52.270;20.984;2023-04-25T06:02:13;10.70;;;7.00;;
54923;SDS011;40825;52.270;20.984;2023-04-25T06:04:39;12.80;;;8.10;;
54923;SDS011;40825;52.270;20.984;2023-04-25T06:07:04;12.10;;;7.40;;
54923;SDS011;40825;52.270;20.984;2023-04-25T06:09:30;13.50;;;8.10;;
54923;SDS011;40825;52.270;20.984;2023-04-25T06:11:55;9.40;;;6.10;;
54923;SDS011;40825;52.270;20.984;2023-04-25T06:14:20;11.40;;;7.60;;
54923;SDS011;40825;52.270;20.984;2023-04-25T06:16:46;11.40;;;7.80;;
54923;SDS011;40825;52.270;20.984;2023-04-25T06:19:12;12.80;;;8.60;;
54923;SDS011;40825;52.270;20.984;2023-04-25T06:21:37;10.40;;;7.40;;
54923;SDS011;40825;52.270;20.984;2023-04-25T06:24:03;12.00;;;7.30;;
54923;SDS011;40825;52.270;20.984;2023-04-25T06:26:29;11.60;;;7.90;;
54923;SDS011;40825;52.270;20.984;2023-04-25T06:28:54;11.80;;;7.50;;
54923;SDS011;40825;52.270;20.984;2023-04-25T06:31:20;9.20;;;5.60;;
54923;SDS011;40825;52.270;20.984;2023-04-25T06:33:45;11.80;;;8.10;;
54923;SDS011;40825;52.270;20.984;2023-04-25T06:36:11;10.90;;;7.80;;
54923;SDS011;40825;52.270;20.984;2023-04-25T06:38:36;12.10;;;8.40;;
54923;SDS011;40825;52.270;20.984;2023-04-25T06:41:01;13.50;;;8.50;;
54923;SDS011;40825;52.270;20.984;2023-04-25T06:43:27;13.00;;;9.40;;
54923;SDS011;40825;52.270;20.984;2023-04-25T06:45:53;11.70;;;7.60;;
54923;SDS011;40825;52.270;20.984;2023-04-25T06:48:18;12.70;;;8.70;;
54923;SDS011;40825;52.270;20.984;2023-04-25T06:50:44;13.80;;;8.90;;
54923;SDS011;40825;52.270;20.984;2023-04-25T06:53:09;13.20;;;8.60;;
54923;SDS011;40825;52.270;20.984;2023-04-25T06:55:36;10.80;;;6.60;;
54923;SDS011;40825;52.270;20.984;2023-04-25T06:58:02;11.00;;;7.50;;
54923;SDS011;40825;52.270;20.984;2023-04-25T07:00:28;10.20;;;6.80;;
54923;SDS011;40825;52.270;20.984;2023-04-25T07:02:53;12.10;;;7.00;;
54923;SDS011;40825;52.270;20.984;2023-04-25T07:05:19;11.00;;;6.40;;
54923;SDS011;40825;52.270;20.984;2023-04-25T07:07:45;9.70;;;6.20;;
54923;SDS011;40825;52.270;20.984;2023-04-25T07:10:10;13.20;;;7.90;;
54923;SDS011;40825;52.270;20.984;2023-04-25T07:12:36;9.20;;;5.90;;
54923;SDS011;40825;52.270;20.984;2023-04-25T07:15:01;10.30;;;6.40;;
54923;SDS011;40825;52.270;20.984;2023-04-25T07:17:31;10.20;;;6.40;;
54923;SDS011;40825;52.270;20.984;2023-04-25T07:19:57;9.50;;;6.50;;
54923;SDS011;40825;52.270;20.984;2023-04-25T07:22:23;10.10;;;6.80;;
54923;SDS011;40825;52.270;20.984;2023-04-25T07:24:49;9.40;;;5.80;;
54923;SDS011;40825;52.270;20.984;2023-04-25T07:27:15;9.10;;;5.50;;
54923;SDS011;40825;52.270;20.984;2023-04-25T07:29:40;11.00;;;3.70;;
54923;SDS011;40825;52.270;20.984;2023-04-25T07:32:07;9.00;;;6.00;;
54923;SDS011;40825;52.270;20.984;2023-04-25T07:34:32;9.70;;;5.70;;
54923;SDS011;40825;52.270;20.984;2023-04-25T07:37:02;8.40;;;5.20;;
54923;SDS011;40825;52.270;20.984;2023-04-25T07:39:27;9.80;;;5.40;;
54923;SDS011;40825;52.270;20.984;2023-04-25T07:41:53;7.80;;;5.20;;
54923;SDS011;40825;52.270;20.984;2023-04-25T07:44:18;8.50;;;5.40;;
54923;SDS011;40825;52.270;20.984;2023-04-25T07:46:44;9.80;;;5.70;;
54923;SDS011;40825;52.270;20.984;2023-04-25T07:49:09;8.80;;;5.30;;
54923;SDS011;40825;52.270;20.984;2023-04-25T07:51:35;10.90;;;7.20;;
54923;SDS011;40825;52.270;20.984;2023-04-25T07:54:01;9.30;;;6.00;;
54923;SDS011;40825;52.270;20.984;2023-04-25T07:56:26;10.90;;;5.90;;
54923;SDS011;40825;52.270;20.984;2023-04-25T07:58:52;10.40;;;7.00;;
54923;SDS011;40825;52.270;20.984;2023-04-25T08:01:17;9.20;;;5.60;;
54923;SDS011;40825;52.270;20.984;2023-04-25T08:03:45;11.10;;;6.50;;
54923;SDS011;40825;52.270;20.984;2023-04-25T08:06:10;10.20;;;6.60;;
54923;SDS011;40825;52.270;20.984;2023-04-25T08:08:36;10.30;;;6.50;;
54923;SDS011;40825;52.270;20.984;2023-04-25T08:11:01;11.00;;;7.10;;
54923;SDS011;40825;52.270;20.984;2023-04-25T08:13:27;9.40;;;6.30;;
54923;SDS011;40825;52.270;20.984;2023-04-25T08:15:52;10.30;;;6.60;;
54923;SDS011;40825;52.270;20.984;2023-04-25T08:18:18;13.50;;;8.30;;
54923;SDS011;40825;52.270;20.984;2023-04-25T08:20:43;11.00;;;7.10;;
54923;SDS011;40825;52.270;20.984;2023-04-25T08:23:09;10.80;;;7.20;;
54923;SDS011;40825;52.270;20.984;2023-04-25T08:25:35;12.00;;;8.20;;
54923;SDS011;40825;52.270;20.984;2023-04-25T08:28:01;10.90;;;7.80;;
54923;SDS011;40825;52.270;20.984;2023-04-25T08:30:28;10.20;;;7.30;;
54923;SDS011;40825;52.270;20.984;2023-04-25T08:32:54;10.40;;;8.40;;
54923;SDS011;40825;52.270;20.984;2023-04-25T08:35:20;10.70;;;7.20;;
54923;SDS011;40825;52.270;20.984;2023-04-25T08:37:45;10.40;;;6.80;;
54923;SDS011;40825;52.270;20.984;2023-04-25T08:40:11;7.90;;;5.00;;
54923;SDS011;40825;52.270;20.984;2023-04-25T08:42:40;8.80;;;6.00;;
54923;SDS011;40825;52.270;20.984;2023-04-25T08:45:07;8.60;;;5.70;;
54923;SDS011;40825;52.270;20.984;2023-04-25T08:47:33;10.20;;;6.10;;
54923;SDS011;40825;52.270;20.984;2023-04-25T08:50:00;7.80;;;5.20;;
54923;SDS011;40825;52.270;20.984;2023-04-25T08:52:30;7.70;;;5.40;;
54923;SDS011;40825;52.270;20.984;2023-04-25T08:55:01;7.90;;;5.60;;
54923;SDS011;40825;52.270;20.984;2023-04-25T08:57:27;9.40;;;6.00;;
54923;SDS011;40825;52.270;20.984;2023-04-25T08:59:53;8.80;;;6.20;;
54923;SDS011;40825;52.270;20.984;2023-04-25T09:02:19;9.90;;;6.20;;
54923;SDS011;40825;52.270;20.984;2023-04-25T09:04:45;10.60;;;6.90;;
54923;SDS011;40825;52.270;20.984;2023-04-25T09:07:11;9.40;;;6.90;;
54923;SDS011;40825;52.270;20.984;2023-04-25T09:09:37;9.60;;;6.10;;
54923;SDS011;40825;52.270;20.984;2023-04-25T09:12:02;10.40;;;7.00;;
54923;SDS011;40825;52.270;20.984;2023-04-25T09:14:28;10.10;;;6.10;;
54923;SDS011;40825;52.270;20.984;2023-04-25T09:19:23;9.60;;;6.60;;
54923;SDS011;40825;52.270;20.984;2023-04-25T09:21:50;9.20;;;6.10;;
54923;SDS011;40825;52.270;20.984;2023-04-25T09:24:16;12.10;;;6.50;;
54923;SDS011;40825;52.270;20.984;2023-04-25T09:26:44;8.50;;;5.70;;
54923;SDS011;40825;52.270;20.984;2023-04-25T09:29:10;10.50;;;6.40;;
54923;SDS011;40825;52.270;20.984;2023-04-25T09:31:36;10.60;;;6.70;;
54923;SDS011;40825;52.270;20.984;2023-04-25T09:34:01;11.20;;;6.70;;
54923;SDS011;40825;52.270;20.984;2023-04-25T09:36:27;10.20;;;6.60;;
54923;SDS011;40825;52.270;20.984;2023-04-25T09:38:53;10.30;;;6.40;;
54923;SDS011;40825;52.270;20.984;2023-04-25T09:41:25;9.20;;;6.30;;
54923;SDS011;40825;52.270;20.984;2023-04-25T09:43:50;11.20;;;6.90;;
54923;SDS011;40825;52.270;20.984;2023-04-25T09:46:16;10.00;;;6.90;;
54923;SDS011;40825;52.270;20.984;2023-04-25T09:48:49;10.60;;;7.30;;
54923;SDS011;40825;52.270;20.984;2023-04-25T09:51:16;13.60;;;8.50;;
54923;SDS011;40825;52.270;20.984;2023-04-25T09:53:45;12.80;;;7.90;;
54923;SDS011;40825;52.270;20.984;2023-04-25T09:56:15;12.80;;;8.20;;
54923;SDS011;40825;52.270;20.984;2023-04-25T09:58:41;12.10;;;7.60;;
54923;SDS011;40825;52.270;20.984;2023-04-25T10:01:10;11.40;;;7.90;;
54923;SDS011;40825;52.270;20.984;2023-04-25T10:03:36;13.50;;;8.80;;
54923;SDS011;40825;52.270;20.984;2023-04-25T10:06:08;10.50;;;7.20;;
54923;SDS011;40825;52.270;20.984;2023-04-25T10:08:38;11.30;;;7.90;;
54923;SDS011;40825;52.270;20.984;2023-04-25T10:11:07;13.10;;;8.80;;
54923;SDS011;40825;52.270;20.984;2023-04-25T10:13:34;13.30;;;9.70;;
54923;SDS011;40825;52.270;20.984;2023-04-25T10:16:04;13.50;;;9.50;;
54923;SDS011;40825;52.270;20.984;2023-04-25T10:18:30;13.70;;;9.30;;
54923;SDS011;40825;52.270;20.984;2023-04-25T10:21:01;13.80;;;7.90;;
54923;SDS011;40825;52.270;20.984;2023-04-25T10:23:29;13.80;;;8.90;;
54923;SDS011;40825;52.270;20.984;2023-04-25T10:25:56;14.70;;;9.70;;
54923;SDS011;40825;52.270;20.984;2023-04-25T10:28:23;14.90;;;10.40;;
54923;SDS011;40825;52.270;20.984;2023-04-25T10:31:06;16.30;;;10.60;;
54923;SDS011;40825;52.270;20.984;2023-04-25T10:36:08;15.00;;;10.70;;
54923;SDS011;40825;52.270;20.984;2023-04-25T10:38:38;16.40;;;11.60;;
54923;SDS011;40825;52.270;20.984;2023-04-25T10:41:06;17.10;;;11.60;;
54923;SDS011;40825;52.270;20.984;2023-04-25T10:43:42;19.00;;;12.40;;
54923;SDS011;40825;52.270;20.984;2023-04-25T10:46:19;15.00;;;10.50;;
54923;SDS011;40825;52.270;20.984;2023-04-25T10:51:21;16.50;;;11.80;;
54923;SDS011;40825;52.270;20.984;2023-04-25T10:56:20;17.10;;;13.20;;
54923;SDS011;40825;52.270;20.984;2023-04-25T10:58:49;16.70;;;11.00;;
54923;SDS011;40825;52.270;20.984;2023-04-25T11:01:15;14.10;;;10.80;;
54923;SDS011;40825;52.270;20.984;2023-04-25T11:03:45;15.40;;;10.90;;
54923;SDS011;40825;52.270;20.984;2023-04-25T11:06:22;11.90;;;8.90;;
54923;SDS011;40825;52.270;20.984;2023-04-25T11:08:53;16.30;;;11.20;;
54923;SDS011;40825;52.270;20.984;2023-04-25T11:11:19;14.80;;;10.80;;
54923;SDS011;40825;52.270;20.984;2023-04-25T11:13:48;15.40;;;11.40;;
54923;SDS011;40825;52.270;20.984;2023-04-25T11:16:15;13.10;;;10.10;;
54923;SDS011;40825;52.270;20.984;2023-04-25T11:18:42;15.20;;;11.00;;
54923;SDS011;40825;52.270;20.984;2023-04-25T11:21:08;12.30;;;9.30;;
54923;SDS011;40825;52.270;20.984;2023-04-25T11:23:34;13.50;;;10.10;;
54923;SDS011;40825;52.270;20.984;2023-04-25T11:26:00;12.30;;;9.00;;
54923;SDS011;40825;52.270;20.984;2023-04-25T11:28:26;11.10;;;7.80;;
54923;SDS011;40825;52.270;20.984;2023-04-25T11:30:52;10.90;;;7.80;;
54923;SDS011;40825;52.270;20.984;2023-04-25T11:33:18;11.10;;;7.80;;
54923;SDS011;40825;52.270;20.984;2023-04-25T11:35:48;11.20;;;7.30;;
54923;SDS011;40825;52.270;20.984;2023-04-25T11:38:13;12.40;;;7.80;;
54923;SDS011;40825;52.270;20.984;2023-04-25T11:40:39;12.00;;;8.20;;
54923;SDS011;40825;52.270;20.984;2023-04-25T11:43:05;9.60;;;6.10;;
54923;SDS011;40825;52.270;20.984;2023-04-25T11:45:32;11.00;;;6.70;;
54923;SDS011;40825;52.270;20.984;2023-04-25T11:47:57;10.30;;;6.40;;
54923;SDS011;40825;52.270;20.984;2023-04-25T11:50:23;10.00;;;6.40;;
54923;SDS011;40825;52.270;20.984;2023-04-25T11:52:49;7.80;;;5.40;;
54923;SDS011;40825;52.270;20.984;2023-04-25T11:55:16;10.10;;;6.80;;
54923;SDS011;40825;52.270;20.984;2023-04-25T11:57:43;10.20;;;6.40;;
54923;SDS011;40825;52.270;20.984;2023-04-25T12:00:12;12.30;;;6.20;;
54923;SDS011;40825;52.270;20.984;2023-04-25T12:02:41;10.00;;;6.60;;
54923;SDS011;40825;52.270;20.984;2023-04-25T12:05:08;13.50;;;7.50;;
54923;SDS011;40825;52.270;20.984;2023-04-25T12:07:35;12.20;;;7.60;;
54923;SDS011;40825;52.270;20.984;2023-04-25T12:10:05;9.50;;;6.30;;
54923;SDS011;40825;52.270;20.984;2023-04-25T12:12:36;8.80;;;6.60;;
54923;SDS011;40825;52.270;20.984;2023-04-25T12:15:15;11.40;;;7.10;;
54923;SDS011;40825;52.270;20.984;2023-04-25T12:17:45;8.70;;;6.40;;
54923;SDS011;40825;52.270;20.984;2023-04-25T12:20:13;8.70;;;5.30;;
54923;SDS011;40825;52.270;20.984;2023-04-25T12:22:41;11.40;;;6.70;;
54923;SDS011;40825;52.270;20.984;2023-04-25T12:25:12;9.10;;;7.00;;
54923;SDS011;40825;52.270;20.984;2023-04-25T12:28:08;8.20;;;5.20;;
54923;SDS011;40825;52.270;20.984;2023-04-25T12:33:21;8.60;;;5.50;;
54923;SDS011;40825;52.270;20.984;2023-04-25T12:35:47;9.00;;;5.50;;
54923;SDS011;40825;52.270;20.984;2023-04-25T12:38:59;9.00;;;6.60;;
54923;SDS011;40825;52.270;20.984;2023-04-25T12:41:03;8.40;;;4.90;;
54923;SDS011;40825;52.270;20.984;2023-04-25T12:43:28;9.50;;;5.60;;
54923;SDS011;40825;52.270;20.984;2023-04-25T12:45:54;8.10;;;5.40;;
54923;SDS011;40825;52.270;20.984;2023-04-25T12:48:21;8.70;;;7.50;;
54923;SDS011;40825;52.270;20.984;2023-04-25T12:50:47;8.00;;;4.60;;
54923;SDS011;40825;52.270;20.984;2023-04-25T12:53:23;7.10;;;4.70;;
54923;SDS011;40825;52.270;20.984;2023-04-25T12:55:51;7.50;;;4.70;;
54923;SDS011;40825;52.270;20.984;2023-04-25T12:58:17;6.80;;;4.70;;
54923;SDS011;40825;52.270;20.984;2023-04-25T13:00:44;8.00;;;4.90;;
54923;SDS011;40825;52.270;20.984;2023-04-25T13:03:10;7.90;;;5.10;;
54923;SDS011;40825;52.270;20.984;2023-04-25T13:05:37;7.60;;;4.90;;
54923;SDS011;40825;52.270;20.984;2023-04-25T13:08:04;8.40;;;5.30;;
54923;SDS011;40825;52.270;20.984;2023-04-25T13:10:30;7.30;;;4.50;;
54923;SDS011;40825;52.270;20.984;2023-04-25T13:12:55;6.20;;;4.20;;
54923;SDS011;40825;52.270;20.984;2023-04-25T13:15:21;6.90;;;4.60;;
54923;SDS011;40825;52.270;20.984;2023-04-25T13:17:48;8.80;;;4.70;;
54923;SDS011;40825;52.270;20.984;2023-04-25T13:20:14;9.20;;;4.50;;
54923;SDS011;40825;52.270;20.984;2023-04-25T13:22:41;7.00;;;4.10;;
54923;SDS011;40825;52.270;20.984;2023-04-25T13:25:07;8.10;;;3.50;;
54923;SDS011;40825;52.270;20.984;2023-04-25T13:27:33;7.30;;;4.10;;
54923;SDS011;40825;52.270;20.984;2023-04-25T13:30:02;5.60;;;3.00;;
54923;SDS011;40825;52.270;20.984;2023-04-25T13:32:36;5.30;;;2.70;;
54923;SDS011;40825;52.270;20.984;2023-04-25T13:35:03;5.00;;;2.50;;
54923;SDS011;40825;52.270;20.984;2023-04-25T13:37:29;7.10;;;3.70;;
54923;SDS011;40825;52.270;20.984;2023-04-25T13:39:58;5.60;;;3.10;;
54923;SDS011;40825;52.270;20.984;2023-04-25T13:42:25;6.50;;;3.30;;
54923;SDS011;40825;52.270;20.984;2023-04-25T13:44:50;5.00;;;2.90;;
54923;SDS011;40825;52.270;20.984;2023-04-25T13:47:16;5.60;;;3.00;;
54923;SDS011;40825;52.270;20.984;2023-04-25T13:49:41;6.40;;;3.20;;
54923;SDS011;40825;52.270;20.984;2023-04-25T13:52:07;5.80;;;3.10;;
54923;SDS011;40825;52.270;20.984;2023-04-25T13:54:33;7.60;;;3.50;;
54923;SDS011;40825;52.270;20.984;2023-04-25T13:56:58;5.30;;;2.70;;
54923;SDS011;40825;52.270;20.984;2023-04-25T13:59:24;6.50;;;3.10;;
54923;SDS011;40825;52.270;20.984;2023-04-25T14:01:51;6.10;;;2.90;;
54923;SDS011;40825;52.270;20.984;2023-04-25T14:04:16;6.40;;;3.00;;
54923;SDS011;40825;52.270;20.984;2023-04-25T14:06:42;5.20;;;2.50;;
54923;SDS011;40825;52.270;20.984;2023-04-25T14:09:08;5.20;;;2.60;;
54923;SDS011;40825;52.270;20.984;2023-04-25T14:11:38;5.40;;;2.50;;
54923;SDS011;40825;52.270;20.984;2023-04-25T14:14:04;6.40;;;3.10;;
54923;SDS011;40825;52.270;20.984;2023-04-25T14:16:30;4.60;;;2.80;;
54923;SDS011;40825;52.270;20.984;2023-04-25T14:19:00;5.60;;;3.20;;
54923;SDS011;40825;52.270;20.984;2023-04-25T14:21:26;7.50;;;3.00;;
54923;SDS011;40825;52.270;20.984;2023-04-25T14:23:53;6.20;;;3.40;;
54923;SDS011;40825;52.270;20.984;2023-04-25T14:26:19;5.20;;;2.60;;
54923;SDS011;40825;52.270;20.984;2023-04-25T14:28:44;6.10;;;3.50;;
54923;SDS011;40825;52.270;20.984;2023-04-25T14:31:10;6.80;;;3.20;;
54923;SDS011;40825;52.270;20.984;2023-04-25T14:33:35;5.90;;;3.00;;